createdAt,value
2022-09-17T00:06:38.945Z,5.60
2022-09-17T00:13:27.628Z,5.40
2022-09-17T00:20:13.894Z,5.50
2022-09-17T00:26:59.855Z,5.50
2022-09-17T00:33:48.053Z,5.50
2022-09-17T00:40:33.584Z,5.10
2022-09-17T00:47:26.356Z,5.22
2022-09-17T00:54:15.254Z,5.55
2022-09-17T01:01:00.638Z,5.40
2022-09-17T01:08:05.657Z,4.80
2022-09-17T01:15:15.945Z,4.80
2022-09-17T01:22:08.504Z,5.10
2022-09-17T01:29:04.676Z,5.35
2022-09-17T01:36:03.767Z,5.07
2022-09-17T01:42:59.687Z,5.30
2022-09-17T01:49:46.069Z,5.35
2022-09-17T01:56:40.739Z,5.68
2022-09-17T02:03:30.732Z,4.80
2022-09-17T02:10:21.230Z,4.90
2022-09-17T02:17:19.289Z,5.30
2022-09-17T02:24:17.943Z,5.18
2022-09-17T02:31:03.382Z,5.22
2022-09-17T02:37:53.201Z,4.60
2022-09-17T02:44:50.476Z,4.10
2022-09-17T03:05:28.191Z,4.90
2022-09-17T03:12:15.327Z,5.15
2022-09-17T03:19:00.783Z,5.05
2022-09-17T03:25:49.604Z,5.28
2022-09-17T03:32:34.989Z,5.13
2022-09-17T03:39:20.405Z,4.40
2022-09-17T03:46:08.561Z,4.57
2022-09-17T03:52:53.964Z,4.10
2022-09-17T03:59:39.886Z,4.20
2022-09-17T04:06:28.070Z,4.63
2022-09-17T04:13:13.855Z,4.30
2022-09-17T04:19:59.224Z,4.50
2022-09-17T04:26:47.369Z,4.43
2022-09-17T04:33:32.961Z,4.90
2022-09-17T04:40:18.717Z,4.45
2022-09-17T04:47:06.939Z,4.80
2022-09-17T04:53:52.333Z,5.20
2022-09-17T05:00:38.077Z,5.38
2022-09-17T05:07:26.369Z,5.18
2022-09-17T05:14:11.937Z,4.85
2022-09-17T05:20:57.313Z,4.50
2022-09-17T05:27:45.565Z,5.20
2022-09-17T05:34:30.942Z,5.25
2022-09-17T05:41:16.956Z,4.80
2022-09-17T05:48:06.737Z,4.60
2022-09-17T05:54:52.138Z,4.50
2022-09-17T06:01:37.534Z,4.70
2022-09-17T06:08:25.775Z,4.70
2022-09-17T06:15:14.645Z,5.00
2022-09-17T06:21:59.985Z,4.80
2022-09-17T06:28:48.753Z,4.82
2022-09-17T06:35:34.136Z,5.30
2022-09-17T06:42:19.480Z,5.30
2022-09-17T06:49:08.016Z,4.88
2022-09-17T06:55:53.563Z,5.15
2022-09-17T07:02:38.904Z,4.68
2022-09-17T07:09:26.980Z,4.38
2022-09-17T07:16:14.136Z,4.40
2022-09-17T07:22:59.977Z,4.88
2022-09-17T07:29:47.923Z,5.30
2022-09-17T07:36:33.268Z,4.50
2022-09-17T07:43:18.607Z,4.63
2022-09-17T07:50:06.865Z,4.85
2022-09-17T07:56:52.207Z,4.85
2022-09-17T08:03:37.901Z,4.85
2022-09-17T08:10:27.232Z,5.00
2022-09-17T08:17:13.052Z,5.47
2022-09-17T08:23:58.453Z,4.90
2022-09-17T08:30:46.507Z,4.90
2022-09-17T08:37:32.929Z,5.18
2022-09-17T08:44:27.932Z,4.85
2022-09-17T08:51:34.701Z,4.90
2022-09-17T08:58:54.081Z,4.28
2022-09-17T09:05:47.536Z,5.07
2022-09-17T09:12:39.190Z,4.80
2022-09-17T09:19:28.149Z,4.90
2022-09-17T09:26:21.117Z,5.18
2022-09-17T09:33:17.932Z,5.35
2022-09-17T09:40:18.617Z,4.40
2022-09-17T09:47:28.220Z,4.90
2022-09-17T09:54:39.445Z,4.47
2022-09-17T10:01:25.855Z,4.53
2022-09-17T10:08:16.577Z,4.78
2022-09-17T10:15:28.577Z,4.78
2022-09-17T10:22:30.345Z,4.35
2022-09-17T10:29:20.066Z,4.63
2022-09-17T10:36:11.464Z,4.75
2022-09-17T10:43:26.005Z,4.50
2022-09-17T10:50:21.270Z,4.53
2022-09-17T10:57:11.402Z,4.30
2022-09-17T11:04:25.544Z,4.00
2022-09-17T11:11:17.848Z,3.70
2022-09-17T11:18:28.981Z,3.53
2022-09-17T11:25:40.452Z,3.55
2022-09-17T11:32:59.160Z,4.45
2022-09-17T11:39:55.420Z,3.80
2022-09-17T11:46:49.486Z,3.60
2022-09-17T11:53:40.603Z,4.22
2022-09-17T12:00:32.212Z,4.00
2022-09-17T12:07:38.801Z,4.30
2022-09-17T12:14:29.271Z,3.85
2022-09-17T12:21:24.080Z,3.60
2022-09-17T12:28:14.677Z,3.67
2022-09-17T12:35:13.868Z,3.35
2022-09-17T12:42:15.401Z,3.65
2022-09-17T12:49:30.714Z,3.63
2022-09-17T12:56:33.238Z,3.90
2022-09-17T13:03:29.177Z,3.50
2022-09-17T13:11:09.441Z,3.50
2022-09-17T13:18:22.990Z,3.45
2022-09-17T13:25:15.400Z,3.78
2022-09-17T13:32:01.938Z,3.50
2022-09-17T13:38:47.397Z,3.30
2022-09-17T13:45:36.475Z,3.33
2022-09-17T13:52:40.190Z,3.05
2022-09-17T13:59:30.183Z,3.25
2022-09-17T14:06:59.675Z,3.35
2022-09-17T14:13:47.371Z,3.50
2022-09-17T14:20:36.475Z,3.25
2022-09-17T14:27:52.299Z,3.40
2022-09-17T14:34:38.350Z,3.30
2022-09-17T14:41:27.931Z,3.40
2022-09-17T14:48:32.662Z,3.67
2022-09-17T14:55:24.119Z,2.80
2022-09-17T15:02:41.426Z,2.85
2022-09-17T15:09:30.447Z,2.83
2022-09-17T15:16:25.299Z,2.67
2022-09-17T15:23:16.995Z,2.50
2022-09-17T15:30:08.576Z,2.78
2022-09-17T15:37:20.175Z,3.10
2022-09-17T15:44:29.770Z,3.30
2022-09-17T15:51:29.697Z,2.70
2022-09-17T15:58:27.193Z,2.70
2022-09-17T16:05:54.203Z,2.85
2022-09-17T16:12:44.868Z,3.10
2022-09-17T16:19:30.189Z,2.85
2022-09-17T16:26:21.160Z,3.28
2022-09-17T16:33:09.550Z,3.75
2022-09-17T16:39:55.238Z,4.22
2022-09-17T16:46:40.650Z,4.00
2022-09-17T16:53:28.837Z,4.30
2022-09-17T17:00:19.520Z,3.97
2022-09-17T17:07:05.369Z,4.00
2022-09-17T17:13:53.297Z,4.30
2022-09-17T17:20:38.841Z,4.00
2022-09-17T17:27:24.176Z,4.10
2022-09-17T17:34:12.519Z,4.57
2022-09-17T17:41:07.663Z,4.45
2022-09-17T17:47:53.124Z,4.20
2022-09-17T17:54:41.308Z,4.40
2022-09-17T18:01:30.599Z,3.60
2022-09-17T18:08:16.013Z,4.30
2022-09-17T18:15:04.067Z,3.95
2022-09-17T18:21:49.625Z,3.58
2022-09-17T18:28:37.641Z,4.00
2022-09-17T18:35:25.640Z,4.20
2022-09-17T18:42:11.311Z,4.28
2022-09-17T18:48:57.777Z,4.63
2022-09-17T18:55:49.756Z,3.85
2022-09-17T19:02:36.192Z,4.32
2022-09-17T19:09:21.565Z,4.10
2022-09-17T19:16:10.959Z,3.75
2022-09-17T19:22:56.372Z,4.00
2022-09-17T19:29:41.721Z,4.40
2022-09-17T19:36:30.231Z,4.10
2022-09-17T19:43:15.771Z,4.20
2022-09-17T19:50:01.177Z,4.28
2022-09-17T19:56:49.343Z,3.85
2022-09-17T20:03:34.843Z,3.80
2022-09-17T20:10:20.465Z,4.30
2022-09-17T20:17:08.525Z,3.72
2022-09-17T20:23:54.254Z,4.20
2022-09-17T20:30:39.965Z,4.10
2022-09-17T20:38:08.297Z,3.90
2022-09-17T20:44:33.312Z,4.88
2022-09-17T20:51:21.417Z,4.72
2022-09-17T20:58:09.932Z,4.10
2022-09-17T21:04:56.407Z,4.40
2022-09-17T21:11:42.488Z,4.20
2022-09-17T21:18:32.697Z,4.15
2022-09-17T21:25:20.546Z,3.97
2022-09-17T21:32:06.231Z,4.60
2022-09-17T21:38:57.889Z,4.93
2022-09-17T21:45:43.214Z,4.50
2022-09-17T21:52:28.615Z,4.90
2022-09-17T21:59:19.265Z,4.70
2022-09-17T22:06:07.250Z,4.82
2022-09-17T22:12:52.708Z,4.45
2022-09-17T22:19:40.676Z,4.97
2022-09-17T22:26:29.135Z,4.50
2022-09-17T22:33:14.489Z,5.82
2022-09-17T22:40:06.377Z,5.13
2022-09-17T22:46:54.348Z,4.80
2022-09-17T22:53:40.864Z,5.00
2022-09-17T23:00:28.838Z,5.10
2022-09-17T23:07:14.454Z,5.20
2022-09-17T23:14:02.253Z,5.43
2022-09-17T23:21:00.599Z,5.15
2022-09-17T23:27:45.952Z,4.78
2022-09-17T23:34:31.835Z,4.53
2022-09-17T23:41:22.609Z,5.00
2022-09-17T23:48:08.077Z,4.55
2022-09-17T23:54:58.228Z,5.45
